createdAt,value
2023-05-15T00:00:55.139Z,18.20
2023-05-15T00:01:55.107Z,16.00
2023-05-15T00:02:55.105Z,15.30
2023-05-15T00:03:55.245Z,14.90
2023-05-15T00:04:55.094Z,18.10
2023-05-15T00:05:55.075Z,17.00
2023-05-15T00:06:55.066Z,17.20
2023-05-15T00:07:55.092Z,16.80
2023-05-15T00:08:55.039Z,17.30
2023-05-15T00:09:55.108Z,17.80
2023-05-15T00:11:01.369Z,22.40
2023-05-15T00:11:56.013Z,27.30
2023-05-15T00:12:55.016Z,28.00
2023-05-15T00:13:55.008Z,30.00
2023-05-15T00:14:55.066Z,34.00
2023-05-15T00:15:55.018Z,37.10
2023-05-15T00:16:54.960Z,39.60
2023-05-15T00:17:55.189Z,41.00
2023-05-15T00:18:55.014Z,40.50
2023-05-15T00:19:54.968Z,39.20
2023-05-15T00:20:54.937Z,36.80
2023-05-15T00:21:54.951Z,37.30
2023-05-15T00:22:54.895Z,44.60
2023-05-15T00:23:54.909Z,36.00
2023-05-15T00:24:54.883Z,35.50
2023-05-15T00:25:54.893Z,36.50
2023-05-15T00:26:54.892Z,34.10
2023-05-15T00:27:54.887Z,43.80
2023-05-15T00:28:54.864Z,45.60
2023-05-15T00:29:54.875Z,46.20
2023-05-15T00:30:54.858Z,50.00
2023-05-15T00:31:54.946Z,36.70
2023-05-15T00:32:54.855Z,39.80
2023-05-15T00:33:54.824Z,38.80
2023-05-15T00:34:54.840Z,39.90
2023-05-15T00:35:54.804Z,33.90
2023-05-15T00:36:54.827Z,37.00
2023-05-15T00:37:54.834Z,37.50
2023-05-15T00:38:54.793Z,36.20
2023-05-15T00:39:54.783Z,32.90
2023-05-15T00:40:54.779Z,36.10
2023-05-15T00:41:54.760Z,31.80
2023-05-15T00:42:54.768Z,29.80
2023-05-15T00:43:54.763Z,33.10
2023-05-15T00:44:54.760Z,34.20
2023-05-15T00:45:54.720Z,28.00
2023-05-15T00:46:54.787Z,26.40
2023-05-15T00:47:54.796Z,34.00
2023-05-15T00:48:54.697Z,35.10
2023-05-15T00:49:54.725Z,34.30
2023-05-15T00:50:54.804Z,33.10
2023-05-15T00:51:54.669Z,34.70
2023-05-15T00:52:54.669Z,35.90
2023-05-15T00:53:54.646Z,33.40
2023-05-15T00:54:54.672Z,30.30
2023-05-15T00:55:54.674Z,52.90
2023-05-15T00:56:54.643Z,49.70
2023-05-15T00:57:54.634Z,42.00
2023-05-15T00:58:54.643Z,53.40
2023-05-15T00:59:54.616Z,41.60
2023-05-15T01:00:54.637Z,49.10
2023-05-15T01:01:54.636Z,44.40
2023-05-15T01:02:54.644Z,41.80
2023-05-15T01:03:54.621Z,53.90
2023-05-15T01:04:54.611Z,51.20
2023-05-15T01:05:54.551Z,45.90
2023-05-15T01:06:54.590Z,43.10
2023-05-15T01:07:54.533Z,45.00
2023-05-15T01:08:54.528Z,39.70
2023-05-15T01:09:54.536Z,41.40
2023-05-15T01:10:54.533Z,42.30
2023-05-15T01:11:54.508Z,40.80
2023-05-15T01:12:54.524Z,40.70
2023-05-15T01:13:54.494Z,42.70
2023-05-15T01:14:54.517Z,46.00
2023-05-15T01:15:54.474Z,36.70
2023-05-15T01:16:54.468Z,41.20
2023-05-15T01:17:54.492Z,48.70
2023-05-15T01:18:54.582Z,37.50
2023-05-15T01:19:54.719Z,48.40
2023-05-15T01:20:54.433Z,42.20
2023-05-15T01:21:54.434Z,42.20
2023-05-15T01:22:54.431Z,48.40
2023-05-15T01:23:54.399Z,53.90
2023-05-15T01:24:54.396Z,55.40
2023-05-15T01:25:54.432Z,49.90
2023-05-15T01:26:54.374Z,61.40
2023-05-15T01:27:54.377Z,58.60
2023-05-15T01:28:54.370Z,58.60
2023-05-15T01:29:54.351Z,54.60
2023-05-15T01:30:54.368Z,50.60
2023-05-15T01:31:54.403Z,47.70
2023-05-15T01:32:54.442Z,46.30
2023-05-15T01:33:54.325Z,43.40
2023-05-15T01:34:54.323Z,43.00
2023-05-15T01:35:54.421Z,50.60
2023-05-15T01:36:54.321Z,46.30
2023-05-15T01:37:54.287Z,43.80
2023-05-15T01:38:54.330Z,40.60
2023-05-15T01:39:54.272Z,43.60
2023-05-15T01:40:54.280Z,46.00
2023-05-15T01:41:54.263Z,43.80
2023-05-15T01:42:54.259Z,42.50
2023-05-15T01:43:54.255Z,44.10
2023-05-15T01:44:54.234Z,42.70
2023-05-15T01:45:54.286Z,40.00
2023-05-15T01:46:54.251Z,42.10
2023-05-15T01:47:54.388Z,52.60
2023-05-15T01:48:54.221Z,45.60
2023-05-15T01:49:54.180Z,38.20
2023-05-15T01:50:54.199Z,50.00
2023-05-15T01:51:54.182Z,47.50
2023-05-15T01:52:54.195Z,45.40
2023-05-15T01:53:54.174Z,45.70
2023-05-15T01:54:54.154Z,50.10
2023-05-15T01:55:54.214Z,46.90
2023-05-15T01:56:54.150Z,40.40
2023-05-15T01:57:54.135Z,43.40
2023-05-15T01:58:54.118Z,44.40
2023-05-15T01:59:54.096Z,41.50
2023-05-15T02:00:54.100Z,50.40
2023-05-15T02:01:54.146Z,46.70
2023-05-15T02:02:54.199Z,41.70
2023-05-15T02:03:54.160Z,46.70
2023-05-15T02:04:54.061Z,43.50
2023-05-15T02:05:54.065Z,43.30
2023-05-15T02:06:54.043Z,44.80
2023-05-15T02:07:54.038Z,39.10
2023-05-15T02:08:54.037Z,45.10
2023-05-15T02:09:54.028Z,49.00
2023-05-15T02:10:54.091Z,39.80
2023-05-15T02:11:54.009Z,49.30
2023-05-15T02:12:54.006Z,40.50
2023-05-15T02:13:53.995Z,45.40
2023-05-15T02:14:53.992Z,38.30
2023-05-15T02:15:54.094Z,38.10
2023-05-15T02:16:54.055Z,37.00
2023-05-15T02:17:54.039Z,39.80
2023-05-15T02:18:54.068Z,37.00
2023-05-15T02:19:53.984Z,42.80
2023-05-15T02:20:53.951Z,46.10
2023-05-15T02:21:53.924Z,35.40
2023-05-15T02:22:53.911Z,37.90
2023-05-15T02:23:53.895Z,42.00
2023-05-15T02:24:53.898Z,50.80
2023-05-15T02:25:53.888Z,39.10
2023-05-15T02:26:53.921Z,43.50
2023-05-15T02:27:53.873Z,46.70
2023-05-15T02:28:53.866Z,43.60
2023-05-15T02:29:53.851Z,38.10
2023-05-15T02:30:53.845Z,35.10
2023-05-15T02:31:53.914Z,32.90
2023-05-15T02:32:53.912Z,34.00
2023-05-15T02:33:53.891Z,33.80
2023-05-15T02:34:53.812Z,35.90
2023-05-15T02:35:53.809Z,39.20
2023-05-15T02:36:53.831Z,36.40
2023-05-15T02:37:53.821Z,38.20
2023-05-15T02:38:53.815Z,37.80
2023-05-15T02:39:53.787Z,37.20
2023-05-15T02:40:53.765Z,40.30
2023-05-15T02:41:53.750Z,40.90
2023-05-15T02:42:53.785Z,40.50
2023-05-15T02:43:53.737Z,37.00
2023-05-15T02:44:53.774Z,48.30
2023-05-15T02:45:53.763Z,39.30
2023-05-15T02:46:53.723Z,46.90
2023-05-15T02:47:53.745Z,43.50
2023-05-15T02:48:53.702Z,40.60
2023-05-15T02:49:53.680Z,39.90
2023-05-15T02:50:53.714Z,37.40
2023-05-15T02:51:53.665Z,40.10
2023-05-15T02:52:53.705Z,42.70
2023-05-15T02:53:53.645Z,42.10
2023-05-15T02:54:53.652Z,48.70
2023-05-15T02:55:53.623Z,39.60
2023-05-15T02:56:53.630Z,45.40
2023-05-15T02:57:53.641Z,37.80
2023-05-15T02:58:53.618Z,37.70
2023-05-15T02:59:53.599Z,40.30
2023-05-15T03:00:53.639Z,46.40
2023-05-15T03:01:53.581Z,51.40
2023-05-15T03:02:53.644Z,52.70
2023-05-15T03:03:53.658Z,55.80
2023-05-15T03:04:54.369Z,47.90
2023-05-15T03:05:53.551Z,43.80
2023-05-15T03:06:53.565Z,46.00
2023-05-15T03:07:53.560Z,52.10
2023-05-15T03:08:53.537Z,42.30
2023-05-15T03:09:53.580Z,42.80
2023-05-15T03:10:53.581Z,40.10
2023-05-15T03:11:53.501Z,40.50
2023-05-15T03:12:53.512Z,41.60
2023-05-15T03:13:53.480Z,37.50
2023-05-15T03:14:53.476Z,36.40
2023-05-15T03:15:53.513Z,41.30
2023-05-15T03:16:53.525Z,44.40
2023-05-15T03:17:53.524Z,40.00
2023-05-15T03:18:53.500Z,40.50
2023-05-15T03:19:53.458Z,33.00
2023-05-15T03:20:53.447Z,41.20
2023-05-15T03:21:53.434Z,35.30
2023-05-15T03:22:53.452Z,38.90
2023-05-15T03:23:53.453Z,41.10
2023-05-15T03:24:53.406Z,39.90
2023-05-15T03:25:53.392Z,40.70
2023-05-15T03:26:53.398Z,39.60
2023-05-15T03:27:53.402Z,41.60
2023-05-15T03:28:53.422Z,40.30
2023-05-15T03:29:53.343Z,41.60
2023-05-15T03:30:53.472Z,46.80
2023-05-15T03:31:54.436Z,41.50
2023-05-15T03:33:00.896Z,41.30
2023-05-15T03:33:53.336Z,38.60
2023-05-15T03:34:53.369Z,33.10
2023-05-15T03:35:53.297Z,39.50
2023-05-15T03:36:53.323Z,41.40
2023-05-15T03:37:53.279Z,35.90
2023-05-15T03:38:53.294Z,42.60
2023-05-15T03:39:53.266Z,41.00
2023-05-15T03:40:53.300Z,38.40
2023-05-15T03:41:53.253Z,38.20
2023-05-15T03:42:53.260Z,40.50
2023-05-15T03:43:53.228Z,39.10
2023-05-15T03:44:53.239Z,38.40
2023-05-15T03:45:53.226Z,36.30
2023-05-15T03:46:53.888Z,37.50
2023-05-15T03:47:53.222Z,39.60
2023-05-15T03:48:53.203Z,35.30
2023-05-15T03:49:53.176Z,36.70
2023-05-15T03:50:53.206Z,40.80
2023-05-15T03:51:53.161Z,43.20
2023-05-15T03:52:53.209Z,41.00
2023-05-15T03:53:53.142Z,38.10
2023-05-15T03:54:53.188Z,39.90
2023-05-15T03:55:53.134Z,37.10
2023-05-15T03:56:53.144Z,35.40
2023-05-15T03:57:53.122Z,40.10
2023-05-15T03:58:53.157Z,36.80
2023-05-15T03:59:53.116Z,37.40
2023-05-15T04:00:53.101Z,41.40
2023-05-15T04:02:04.094Z,42.10
2023-05-15T04:02:54.165Z,48.10
2023-05-15T04:03:53.066Z,46.00
2023-05-15T04:04:53.179Z,43.30
2023-05-15T04:05:53.034Z,45.20
2023-05-15T04:06:53.036Z,37.40
2023-05-15T04:07:53.019Z,43.10
2023-05-15T04:08:53.031Z,41.10
2023-05-15T04:09:53.013Z,38.60
2023-05-15T04:10:53.026Z,40.00
2023-05-15T04:11:52.993Z,40.50
2023-05-15T04:12:53.001Z,39.20
2023-05-15T04:13:52.976Z,41.30
2023-05-15T04:14:52.982Z,37.70
2023-05-15T04:15:52.976Z,45.40
2023-05-15T04:16:53.013Z,40.40
2023-05-15T04:17:52.969Z,39.10
2023-05-15T04:18:53.002Z,44.40
2023-05-15T04:19:52.982Z,37.90
2023-05-15T04:20:52.930Z,39.30
2023-05-15T04:21:52.909Z,41.10
2023-05-15T04:22:52.924Z,42.50
2023-05-15T04:23:52.883Z,43.70
2023-05-15T04:24:52.879Z,38.40
2023-05-15T04:25:52.871Z,40.90
2023-05-15T04:26:52.951Z,44.80
2023-05-15T04:27:52.862Z,38.40
2023-05-15T04:29:03.551Z,35.40
2023-05-15T04:29:53.834Z,38.40
2023-05-15T04:30:53.704Z,36.80
2023-05-15T04:31:52.836Z,36.20
2023-05-15T04:32:52.849Z,41.20
2023-05-15T04:33:52.810Z,47.80
2023-05-15T04:34:52.841Z,46.60
2023-05-15T04:35:52.783Z,42.40
2023-05-15T04:36:52.787Z,46.30
2023-05-15T04:37:52.770Z,41.70
2023-05-15T04:38:52.784Z,36.20
2023-05-15T04:39:52.772Z,49.90
2023-05-15T04:40:52.792Z,41.50
2023-05-15T04:41:52.754Z,40.70
2023-05-15T04:42:52.740Z,42.10
2023-05-15T04:43:52.740Z,49.40
2023-05-15T04:44:52.706Z,37.00
2023-05-15T04:45:52.764Z,39.10
2023-05-15T04:46:52.724Z,45.70
2023-05-15T04:47:52.753Z,43.30
2023-05-15T04:48:52.690Z,34.80
2023-05-15T04:49:52.692Z,35.60
2023-05-15T04:50:52.668Z,38.00
2023-05-15T04:51:52.685Z,33.20
2023-05-15T04:52:52.788Z,38.70
2023-05-15T04:53:52.675Z,35.10
2023-05-15T04:54:52.663Z,43.00
2023-05-15T04:55:52.645Z,43.30
2023-05-15T04:56:52.627Z,38.60
2023-05-15T04:57:52.810Z,40.30
2023-05-15T04:58:52.583Z,40.40
2023-05-15T04:59:52.698Z,42.50
2023-05-15T05:00:54.836Z,33.10
2023-05-15T05:01:52.556Z,42.60
2023-05-15T05:02:53.167Z,37.20
2023-05-15T05:03:52.719Z,40.30
2023-05-15T05:04:52.561Z,40.00
2023-05-15T05:05:52.533Z,43.70
2023-05-15T05:06:52.517Z,45.90
2023-05-15T05:07:52.533Z,42.20
2023-05-15T05:08:52.544Z,44.30
2023-05-15T05:09:52.501Z,41.20
2023-05-15T05:10:52.579Z,45.10
2023-05-15T05:11:52.498Z,44.70
2023-05-15T05:12:54.629Z,52.40
2023-05-15T05:13:52.540Z,40.40
2023-05-15T05:14:52.456Z,37.80
2023-05-15T05:15:52.479Z,43.90
2023-05-15T05:16:52.438Z,49.90
2023-05-15T05:17:52.499Z,45.10
2023-05-15T05:18:52.458Z,41.80
2023-05-15T05:19:52.446Z,42.30
2023-05-15T05:20:52.424Z,45.20
2023-05-15T05:21:52.407Z,40.20
2023-05-15T05:22:52.403Z,43.70
2023-05-15T05:23:52.385Z,46.60
2023-05-15T05:24:52.393Z,43.50
2023-05-15T05:25:52.379Z,42.70
2023-05-15T05:26:52.375Z,45.30
2023-05-15T05:27:52.585Z,39.60
2023-05-15T05:28:52.337Z,41.60
2023-05-15T05:29:52.379Z,42.80
2023-05-15T05:30:52.322Z,42.60
2023-05-15T05:31:52.455Z,38.90
2023-05-15T05:32:52.359Z,45.90
2023-05-15T05:33:52.301Z,43.10
2023-05-15T05:34:52.317Z,45.80
2023-05-15T05:35:52.292Z,41.50
2023-05-15T05:36:52.310Z,40.80
2023-05-15T05:37:52.280Z,48.00
2023-05-15T05:38:52.238Z,45.60
2023-05-15T05:39:52.268Z,44.60
2023-05-15T05:40:52.255Z,42.70
2023-05-15T05:41:52.227Z,42.80
2023-05-15T05:42:52.229Z,38.00
2023-05-15T05:43:52.216Z,46.90
2023-05-15T05:44:52.230Z,38.20
2023-05-15T05:45:52.188Z,33.20
2023-05-15T05:46:52.191Z,44.70
2023-05-15T05:47:52.225Z,43.00
2023-05-15T05:48:52.172Z,42.20
2023-05-15T05:49:52.164Z,50.20
2023-05-15T05:50:52.185Z,41.50
2023-05-15T05:51:52.151Z,42.50
2023-05-15T05:52:52.132Z,45.70
2023-05-15T05:53:52.128Z,45.10
2023-05-15T05:54:52.106Z,42.70
2023-05-15T05:55:52.110Z,42.10
2023-05-15T05:56:52.134Z,41.60
2023-05-15T05:57:52.103Z,40.40
2023-05-15T05:58:52.087Z,38.30
2023-05-15T05:59:52.087Z,40.20
2023-05-15T06:00:52.061Z,40.10
2023-05-15T06:01:52.094Z,40.00
2023-05-15T06:02:52.190Z,31.50
2023-05-15T06:03:52.147Z,35.30
2023-05-15T06:04:52.366Z,39.70
2023-05-15T06:05:52.034Z,35.70
2023-05-15T06:06:52.004Z,47.50
2023-05-15T06:07:52.007Z,38.90
2023-05-15T06:08:53.147Z,37.30
2023-05-15T06:09:52.006Z,44.90
2023-05-15T06:10:52.008Z,41.40
2023-05-15T06:11:51.999Z,42.70
2023-05-15T06:12:52.009Z,38.10
2023-05-15T06:13:51.998Z,34.80
2023-05-15T06:14:52.065Z,40.00
2023-05-15T06:15:51.939Z,37.00
2023-05-15T06:16:51.953Z,37.90
2023-05-15T06:17:51.947Z,40.60
2023-05-15T06:18:51.949Z,37.20
2023-05-15T06:19:51.916Z,41.30
2023-05-15T06:20:52.019Z,38.40
2023-05-15T06:21:51.887Z,38.00
2023-05-15T06:22:51.897Z,32.40
2023-05-15T06:23:51.870Z,34.90
2023-05-15T06:24:51.867Z,28.30
2023-05-15T06:25:51.960Z,29.40
2023-05-15T06:26:52.502Z,30.20
2023-05-15T06:27:51.932Z,36.90
2023-05-15T06:28:51.823Z,29.50
2023-05-15T06:29:51.827Z,28.50
2023-05-15T06:30:51.839Z,30.70
2023-05-15T06:31:51.804Z,26.40
2023-05-15T06:32:51.869Z,24.10
2023-05-15T06:33:51.790Z,27.80
2023-05-15T06:34:51.768Z,27.90
2023-05-15T06:35:51.770Z,30.90
2023-05-15T06:36:51.763Z,34.40
2023-05-15T06:37:51.761Z,31.50
2023-05-15T06:38:51.773Z,35.10
2023-05-15T06:39:51.731Z,31.10
2023-05-15T06:40:51.758Z,27.80
2023-05-15T06:41:51.780Z,25.50
2023-05-15T06:42:51.715Z,27.80
2023-05-15T06:43:51.694Z,26.80
2023-05-15T06:44:51.717Z,26.70
2023-05-15T06:45:51.736Z,22.20
2023-05-15T06:46:51.758Z,23.10
2023-05-15T06:47:51.723Z,21.80
2023-05-15T06:48:51.675Z,24.00
2023-05-15T06:49:51.693Z,25.40
2023-05-15T06:50:51.666Z,24.50
2023-05-15T06:51:51.654Z,22.00
2023-05-15T06:52:51.627Z,22.90
2023-05-15T06:53:51.627Z,22.30
2023-05-15T06:54:51.622Z,27.50
2023-05-15T06:55:51.647Z,23.90
2023-05-15T06:56:51.619Z,24.30
2023-05-15T06:57:51.604Z,24.00
2023-05-15T06:58:51.587Z,23.00
2023-05-15T06:59:51.582Z,22.60
2023-05-15T07:00:52.556Z,24.20
2023-05-15T07:01:51.591Z,23.10
2023-05-15T07:02:51.814Z,24.10
2023-05-15T07:03:51.534Z,24.40
2023-05-15T07:04:51.550Z,22.40
2023-05-15T07:05:51.597Z,21.50
2023-05-15T07:06:51.498Z,20.60
2023-05-15T07:07:51.503Z,22.10
2023-05-15T07:08:51.590Z,19.30
2023-05-15T07:09:51.478Z,18.00
2023-05-15T07:10:51.493Z,18.90
2023-05-15T07:11:51.526Z,19.50
2023-05-15T07:12:51.460Z,19.90
2023-05-15T07:13:52.713Z,19.20
2023-05-15T07:14:51.549Z,18.80
2023-05-15T07:15:51.444Z,18.70
2023-05-15T07:16:51.458Z,17.40
2023-05-15T07:17:51.545Z,17.80
2023-05-15T07:18:51.550Z,19.80
2023-05-15T07:19:51.473Z,19.00
2023-05-15T07:20:51.387Z,18.00
2023-05-15T07:21:51.401Z,18.50
2023-05-15T07:22:56.240Z,17.10
2023-05-15T07:23:52.384Z,16.40
2023-05-15T07:24:51.366Z,16.30
2023-05-15T07:25:51.410Z,16.50
2023-05-15T07:27:52.346Z,18.10
2023-05-15T07:28:51.321Z,16.40
2023-05-15T07:29:51.366Z,16.40
2023-05-15T07:30:51.442Z,16.60
2023-05-15T07:31:51.421Z,14.90
2023-05-15T07:32:51.346Z,14.80
2023-05-15T07:33:51.310Z,15.80
2023-05-15T07:34:51.309Z,15.30
2023-05-15T07:35:51.280Z,15.70
2023-05-15T07:36:51.306Z,14.50
2023-05-15T07:37:51.312Z,14.30
2023-05-15T07:38:51.239Z,14.80
2023-05-15T07:39:51.275Z,14.00
2023-05-15T07:40:52.184Z,13.90
2023-05-15T07:41:51.234Z,13.80
2023-05-15T07:42:51.388Z,13.50
2023-05-15T07:43:51.215Z,12.60
2023-05-15T07:44:51.290Z,12.70
2023-05-15T07:45:51.304Z,12.60
2023-05-15T07:46:51.234Z,12.80
2023-05-15T07:47:51.236Z,11.70
2023-05-15T07:48:51.188Z,12.00
2023-05-15T07:49:51.192Z,12.60
2023-05-15T07:50:51.181Z,12.60
2023-05-15T07:51:51.196Z,13.00
2023-05-15T07:52:51.148Z,13.70
2023-05-15T07:53:51.174Z,12.20
2023-05-15T07:54:51.127Z,12.80
2023-05-15T07:55:51.131Z,12.70
2023-05-15T07:56:51.109Z,12.10
2023-05-15T07:57:54.082Z,12.50
2023-05-15T07:58:51.126Z,12.50
2023-05-15T07:59:51.101Z,12.30
2023-05-15T08:00:51.065Z,12.50
2023-05-15T08:01:51.074Z,12.10
2023-05-15T08:02:51.436Z,12.50
2023-05-15T08:03:51.197Z,10.70
2023-05-15T08:04:51.049Z,11.80
2023-05-15T08:05:51.033Z,11.30
2023-05-15T08:06:51.022Z,12.00
2023-05-15T08:07:51.030Z,12.10
2023-05-15T08:08:51.001Z,11.80
2023-05-15T08:09:51.086Z,11.40
2023-05-15T08:10:50.988Z,11.40
2023-05-15T08:11:50.992Z,10.60
2023-05-15T08:12:50.980Z,10.70
2023-05-15T08:13:50.995Z,11.30
2023-05-15T08:14:51.004Z,10.90
2023-05-15T08:15:51.012Z,10.70
2023-05-15T08:16:50.946Z,11.40
2023-05-15T08:17:50.984Z,10.50
2023-05-15T08:18:50.951Z,10.60
2023-05-15T08:19:50.984Z,11.30
2023-05-15T08:20:50.921Z,11.60
2023-05-15T08:21:50.938Z,11.00
2023-05-15T08:22:50.887Z,10.60
2023-05-15T08:23:53.666Z,10.30
2023-05-15T08:24:50.907Z,9.50
2023-05-15T08:25:50.935Z,9.60
2023-05-15T08:26:50.909Z,9.70
2023-05-15T08:27:50.879Z,9.50
2023-05-15T08:28:51.222Z,9.30
2023-05-15T08:29:50.846Z,9.50
2023-05-15T08:30:50.859Z,9.40
2023-05-15T08:31:50.873Z,9.50
2023-05-15T08:32:50.863Z,9.80
2023-05-15T08:33:50.810Z,10.10
2023-05-15T08:34:50.808Z,9.80
2023-05-15T08:35:50.822Z,9.40
2023-05-15T08:36:50.815Z,9.10
2023-05-15T08:37:50.765Z,9.00
2023-05-15T08:38:50.750Z,9.30
2023-05-15T08:39:50.751Z,9.20
2023-05-15T08:40:50.740Z,9.00
2023-05-15T08:41:50.754Z,9.00
2023-05-15T08:42:50.768Z,9.30
2023-05-15T08:43:50.730Z,9.30
2023-05-15T08:44:50.710Z,8.80
2023-05-15T08:45:50.717Z,9.30
2023-05-15T08:46:50.800Z,8.90
2023-05-15T08:47:50.778Z,9.10
2023-05-15T08:48:50.781Z,9.10
2023-05-15T08:49:50.684Z,8.50
2023-05-15T08:50:50.643Z,8.60
2023-05-15T08:51:50.683Z,8.40
2023-05-15T08:52:50.638Z,8.90
2023-05-15T08:53:50.646Z,9.00
2023-05-15T08:54:50.710Z,9.20
2023-05-15T08:55:50.618Z,8.70
2023-05-15T08:56:50.642Z,9.20
2023-05-15T08:57:50.602Z,8.40
2023-05-15T08:58:50.592Z,8.70
2023-05-15T08:59:50.626Z,8.50
2023-05-15T09:00:50.586Z,8.50
2023-05-15T09:01:50.582Z,8.20
2023-05-15T09:02:50.675Z,8.90
2023-05-15T09:03:50.638Z,8.90
2023-05-15T09:04:50.552Z,9.00
2023-05-15T09:05:50.544Z,9.00
2023-05-15T09:06:50.517Z,9.40
2023-05-15T09:07:50.503Z,8.70
2023-05-15T09:08:50.588Z,9.00
2023-05-15T09:09:50.515Z,8.80
2023-05-15T09:10:50.497Z,8.90
2023-05-15T09:11:50.500Z,8.90
2023-05-15T09:12:50.486Z,8.90
2023-05-15T09:13:50.488Z,9.30
2023-05-15T09:14:50.489Z,8.80
2023-05-15T09:15:50.449Z,9.10
2023-05-15T09:16:50.499Z,8.90
2023-05-15T09:17:51.292Z,8.70
2023-05-15T09:18:50.490Z,9.00
2023-05-15T09:19:50.412Z,8.90
2023-05-15T09:20:50.424Z,9.10
2023-05-15T09:21:50.413Z,8.30
2023-05-15T09:22:50.402Z,8.80
2023-05-15T09:23:50.368Z,8.70
2023-05-15T09:24:50.376Z,8.60
2023-05-15T09:25:50.356Z,8.20
2023-05-15T09:26:50.401Z,8.80
2023-05-15T09:27:50.334Z,8.30
2023-05-15T09:28:50.334Z,8.00
2023-05-15T09:29:50.342Z,7.90
2023-05-15T09:30:50.332Z,8.40
2023-05-15T09:31:50.358Z,7.80
2023-05-15T09:32:50.366Z,8.10
2023-05-15T09:33:50.291Z,8.60
2023-05-15T09:34:50.292Z,8.50
2023-05-15T09:35:50.304Z,8.50
2023-05-15T09:36:50.334Z,8.00
2023-05-15T09:37:50.251Z,8.00
2023-05-15T09:38:50.335Z,7.70
2023-05-15T09:39:50.249Z,7.70
2023-05-15T09:40:50.267Z,7.30
2023-05-15T09:41:50.245Z,7.40
2023-05-15T09:42:50.227Z,7.40
2023-05-15T09:43:50.207Z,7.20
2023-05-15T09:44:50.237Z,7.30
2023-05-15T09:45:50.337Z,6.70
2023-05-15T09:46:50.270Z,6.80
2023-05-15T09:47:50.315Z,6.80
2023-05-15T09:48:50.190Z,7.20
2023-05-15T09:49:50.166Z,6.90
2023-05-15T09:50:50.212Z,7.00
2023-05-15T09:51:50.209Z,6.50
2023-05-15T09:53:57.651Z,5.00
2023-05-15T09:54:50.685Z,4.50
2023-05-15T09:55:50.103Z,5.00
2023-05-15T09:56:50.118Z,4.70
2023-05-15T09:57:50.088Z,4.20
2023-05-15T09:58:50.109Z,4.90
2023-05-15T09:59:50.099Z,5.70
2023-05-15T10:00:50.078Z,5.70
2023-05-15T10:01:50.075Z,4.70
2023-05-15T10:02:50.092Z,5.00
2023-05-15T10:03:50.053Z,4.20
2023-05-15T10:04:50.176Z,4.40
2023-05-15T10:05:50.121Z,4.30
2023-05-15T10:06:50.040Z,4.10
2023-05-15T10:07:50.011Z,4.60
2023-05-15T10:08:50.015Z,4.50
2023-05-15T10:09:50.007Z,4.60
2023-05-15T10:10:50.041Z,4.10
2023-05-15T10:11:49.974Z,4.40
2023-05-15T10:12:50.036Z,4.30
2023-05-15T10:13:49.959Z,4.60
2023-05-15T10:14:49.992Z,4.10
2023-05-15T10:15:50.145Z,4.00
2023-05-15T10:16:49.971Z,4.20
2023-05-15T10:17:50.012Z,3.90
2023-05-15T10:18:49.999Z,4.10
2023-05-15T10:19:57.702Z,4.50
2023-05-15T10:20:50.957Z,3.80
2023-05-15T10:21:49.905Z,4.20
2023-05-15T10:22:49.930Z,3.90
2023-05-15T10:23:49.881Z,4.00
2023-05-15T10:24:49.891Z,4.00
2023-05-15T10:25:49.890Z,3.80
2023-05-15T10:26:49.926Z,4.40
2023-05-15T10:27:49.862Z,3.90
2023-05-15T10:28:49.855Z,4.10
2023-05-15T10:29:49.830Z,3.70
2023-05-15T10:30:49.837Z,3.80
2023-05-15T10:31:49.901Z,3.90
2023-05-15T10:32:49.865Z,3.70
2023-05-15T10:33:49.790Z,3.80
2023-05-15T10:34:49.826Z,3.90
2023-05-15T10:35:49.808Z,3.70
2023-05-15T10:36:49.790Z,4.40
2023-05-15T10:37:49.801Z,4.00
2023-05-15T10:38:49.803Z,4.00
2023-05-15T10:39:49.808Z,4.20
2023-05-15T10:40:49.754Z,4.00
2023-05-15T10:41:49.743Z,4.00
2023-05-15T10:42:49.753Z,4.10
2023-05-15T10:43:49.724Z,4.00
2023-05-15T10:44:49.754Z,4.00
2023-05-15T10:45:49.699Z,4.10
2023-05-15T10:46:49.733Z,4.20
2023-05-15T10:47:49.737Z,3.90
2023-05-15T10:48:49.680Z,3.80
2023-05-15T10:49:49.656Z,3.90
2023-05-15T10:50:49.721Z,3.90
2023-05-15T10:51:49.642Z,4.10
2023-05-15T10:52:49.638Z,3.60
2023-05-15T10:53:49.643Z,3.90
2023-05-15T10:54:49.667Z,3.80
2023-05-15T10:55:49.692Z,4.00
2023-05-15T10:56:52.100Z,3.80
2023-05-15T10:57:49.625Z,3.90
2023-05-15T10:58:49.606Z,4.10
2023-05-15T10:59:49.581Z,4.10
2023-05-15T11:00:49.601Z,4.00
2023-05-15T11:01:49.568Z,3.90
2023-05-15T11:02:49.706Z,4.00
2023-05-15T11:03:50.613Z,4.10
2023-05-15T11:04:49.569Z,4.00
2023-05-15T11:05:49.711Z,4.20
2023-05-15T11:06:49.632Z,4.10
2023-05-15T11:07:49.538Z,3.80
2023-05-15T11:08:49.513Z,4.00
2023-05-15T11:09:49.511Z,4.00
2023-05-15T11:10:49.520Z,3.80
2023-05-15T11:11:49.477Z,4.00
2023-05-15T11:12:49.496Z,3.90
2023-05-15T11:13:49.503Z,4.10
2023-05-15T11:14:49.452Z,4.20
2023-05-15T11:15:49.454Z,4.20
2023-05-15T11:16:49.446Z,4.20
2023-05-15T11:17:49.451Z,4.00
2023-05-15T11:18:49.466Z,4.10
2023-05-15T11:19:49.481Z,4.30
2023-05-15T11:20:49.463Z,4.00
2023-05-15T11:21:49.412Z,4.10
2023-05-15T11:22:49.413Z,3.90
2023-05-15T11:23:49.435Z,4.00
2023-05-15T11:24:49.378Z,3.90
2023-05-15T11:25:49.413Z,4.00
2023-05-15T11:26:49.358Z,3.90
2023-05-15T11:27:49.335Z,3.70
2023-05-15T11:28:49.882Z,3.90
2023-05-15T11:29:49.356Z,3.90
2023-05-15T11:30:49.340Z,3.50
2023-05-15T11:31:49.330Z,4.10
2023-05-15T11:32:49.352Z,4.80
2023-05-15T11:33:50.469Z,4.00
2023-05-15T11:34:49.366Z,3.60
2023-05-15T11:35:49.286Z,3.80
2023-05-15T11:36:49.303Z,3.70
2023-05-15T11:37:49.299Z,3.80
2023-05-15T11:38:49.291Z,4.20
2023-05-15T11:39:49.249Z,4.50
2023-05-15T11:40:49.255Z,3.90
2023-05-15T11:41:49.237Z,3.90
2023-05-15T11:42:49.255Z,3.80
2023-05-15T11:43:49.261Z,3.70
2023-05-15T11:44:49.199Z,4.00
2023-05-15T11:45:49.180Z,4.00
2023-05-15T11:46:49.262Z,4.20
2023-05-15T11:47:49.230Z,4.20
2023-05-15T11:48:49.170Z,4.00
2023-05-15T11:49:49.213Z,4.00
2023-05-15T11:50:49.161Z,4.10
2023-05-15T11:51:49.143Z,4.50
2023-05-15T11:52:49.150Z,4.50
2023-05-15T11:53:49.128Z,4.20
2023-05-15T11:54:49.136Z,4.20
2023-05-15T11:55:49.135Z,3.90
2023-05-15T11:56:49.113Z,3.80
2023-05-15T11:57:49.115Z,4.30
2023-05-15T11:58:49.116Z,4.50
2023-05-15T11:59:49.134Z,4.00
2023-05-15T12:00:49.080Z,4.00
2023-05-15T12:01:49.105Z,3.60
2023-05-15T12:02:49.150Z,4.20
2023-05-15T12:03:49.281Z,3.80
2023-05-15T12:04:49.078Z,4.00
2023-05-15T12:05:58.434Z,4.70
2023-05-15T12:06:50.060Z,3.80
2023-05-15T12:07:49.006Z,4.00
2023-05-15T12:08:49.005Z,3.90
2023-05-15T12:09:48.987Z,4.10
2023-05-15T12:10:48.973Z,4.30
2023-05-15T12:11:48.958Z,4.00
2023-05-15T12:12:49.009Z,4.10
2023-05-15T12:13:48.950Z,4.60
2023-05-15T12:14:48.952Z,4.20
2023-05-15T12:15:48.960Z,4.60
2023-05-15T12:16:48.983Z,4.30
2023-05-15T12:17:48.949Z,4.10
2023-05-15T12:18:49.002Z,4.40
2023-05-15T12:19:48.924Z,4.10
2023-05-15T12:20:48.898Z,4.30
2023-05-15T12:21:48.880Z,4.00
2023-05-15T12:22:48.904Z,4.00
2023-05-15T12:23:59.508Z,4.00
2023-05-15T12:24:49.899Z,3.80
2023-05-15T12:25:48.851Z,4.00
2023-05-15T12:26:48.865Z,4.10
2023-05-15T12:27:48.920Z,4.20
2023-05-15T12:28:48.872Z,4.20
2023-05-15T12:29:48.852Z,4.40
2023-05-15T12:30:48.861Z,4.30
2023-05-15T12:31:48.875Z,3.80
2023-05-15T12:32:48.860Z,4.10
2023-05-15T12:33:48.826Z,4.60
2023-05-15T12:34:48.795Z,4.70
2023-05-15T12:35:48.785Z,4.60
2023-05-15T12:36:48.842Z,4.40
2023-05-15T12:37:48.781Z,5.10
2023-05-15T12:38:48.783Z,5.00
2023-05-15T12:39:48.744Z,4.50
2023-05-15T12:40:48.746Z,4.60
2023-05-15T12:41:49.794Z,4.40
2023-05-15T12:42:48.754Z,4.50
2023-05-15T12:43:48.723Z,4.90
2023-05-15T12:44:48.724Z,5.30
2023-05-15T12:45:48.780Z,4.90
2023-05-15T12:46:48.722Z,4.90
2023-05-15T12:47:48.704Z,4.80
2023-05-15T12:48:48.784Z,4.60
2023-05-15T12:49:48.657Z,4.80
2023-05-15T12:50:48.668Z,4.90
2023-05-15T12:51:48.656Z,4.80
2023-05-15T12:52:48.672Z,4.90
2023-05-15T12:53:48.656Z,4.50
2023-05-15T12:54:48.726Z,4.90
2023-05-15T12:55:48.626Z,4.80
2023-05-15T12:56:48.619Z,5.00
2023-05-15T12:57:48.589Z,4.90
2023-05-15T12:58:48.729Z,4.70
2023-05-15T12:59:48.582Z,4.90
2023-05-15T13:00:48.612Z,4.90
2023-05-15T13:01:48.674Z,5.20
2023-05-15T13:02:48.765Z,5.10
2023-05-15T13:03:48.674Z,5.10